• Join FlightAware (Why Join?)
  • Login
  • US Flag 
10:11PM EDT


 

Airport Tracker/Info


-or-


 

Live Flight TrackerFlight Track Log ✈ N28JK ✈ 14-Oct-2013 ✈ KPWM - 1N7

Flight Track Log - Related Links

Times and Time Zones

All times are in EDT time to prevent confusion due to time zone crossing. See the N28JK flight status page for this flight to view local times or setup timezone preferences in your user account.

Time Position Orientation Groundspeed Altitude Reporting Facility
EDT Latitude Longitude Course Direction KTS MPH feet Rate Location/Type
04:51PM 43.5808 -70.4222 235° Southwest 150 173 6,600  Level Boston Center
04:52PM 43.5611 -70.4744 242° Southwest 150 173 8,500 2,040 Climbing Boston Center
04:53PM 43.5389 -70.5239 238° Southwest 155 178 10,800 2,040 Climbing Boston Center
04:54PM 43.5189 -70.5733 241° Southwest 155 178 12,700 2,040 Climbing Boston Center
04:55PM 43.5231 -70.5404 235° Southwest  Level Estimated
04:55PM 43.4989 -70.6225 241° Southwest 155 178 14,900  Level Boston Center
04:56PM 43.4808 -70.6689 242° Southwest 155 178 16,500 780 Climbing Boston Center
04:57PM 43.4525 -70.7356 240° Southwest 182 209 16,500  Level Boston Center
04:58PM 43.4244 -70.8019 240° Southwest 196 226 16,500  Level Boston Center
04:59PM 43.3961 -70.8714 241° Southwest 210 242 16,500  Level Boston Center
05:00PM 43.3681 -70.9378 240° Southwest 210 242 16,500  Level Boston Center
05:01PM 43.3375 -71.0072 239° Southwest 204 235 16,500  Level Boston Center
05:02PM 43.3133 -71.0703 242° Southwest 204 235 16,500  Level Boston Center
05:03PM 43.2808 -71.1453 239° Southwest 204 235 16,500  Level Boston Center
05:04PM 43.2567 -71.2058 241° Southwest 204 235 16,500  Level Boston Center
05:05PM 43.2281 -71.2803 242° Southwest 204 235 16,600  Climbing Boston Center
05:06PM 43.1975 -71.3522 240° Southwest 204 235 16,500 -60 Descending Boston Center
05:07PM 43.1731 -71.4094 240° Southwest 204 235 16,500  Level Boston Center
05:08PM 43.1403 -71.4842 239° Southwest 204 235 16,500  Level Boston Center
05:09PM 43.1139 -71.5442 239° Southwest 204 235 16,500  Level Boston Center
05:10PM 43.0811 -71.6186 239° Southwest 204 235 16,500  Level Boston Center
05:11PM 43.0564 -71.6814 242° Southwest 204 235 16,600  Climbing Boston Center
05:12PM 43.0256 -71.7556 240° Southwest 204 235 16,600  Level Boston Center
05:13PM 42.9947 -71.8128 234° Southwest 211 243 16,600  Level Boston Center
05:14PM 42.9533 -71.8811 230° Southwest 222 255 16,600  Level Boston Center
05:15PM 42.9183 -71.9356 229° Southwest 222 255 16,600  Level Boston Center
05:16PM 42.8789 -72.0008 231° Southwest 222 255 16,600  Level Boston Center
05:17PM 42.8436 -72.0578 230° Southwest 217 250 16,600  Level Boston Center
05:18PM 42.8022 -72.1261 230° Southwest 217 250 16,600  Level Boston Center
05:19PM 42.7689 -72.1828 231° Southwest 211 243 16,600  Level Boston Center
05:20PM 42.7275 -72.2536 232° Southwest 211 243 16,600  Level Boston Center
05:21PM 42.6942 -72.3072 230° Southwest 211 243 16,600  Level Boston Center
05:22PM 42.6567 -72.3694 231° Southwest 211 243 16,600  Level Boston Center
05:23PM 42.6192 -72.4289 229° Southwest 211 243 16,600  Level Boston Center
05:24PM 42.5817 -72.4936 232° Southwest 211 243 16,600  Level Boston Center
05:25PM 42.5419 -72.5556 229° Southwest 211 243 16,600  Level Boston Center
05:26PM 42.5025 -72.6203 230° Southwest 211 243 16,600  Level Boston Center
05:27PM 42.4586 -72.6878 229° Southwest 211 243 16,600  Level Boston Center
05:28PM 42.4250 -72.7439 231° Southwest 216 249 16,600  Level Boston Center
05:29PM 42.3811 -72.8139 230° Southwest 221 254 16,600  Level Boston Center
05:30PM 42.3475 -72.8700 231° Southwest 226 260 16,600  Level Boston Center
05:31PM 42.3033 -72.9425 231° Southwest 226 260 16,600  Level Boston Center
05:32PM 42.2656 -72.9983 228° Southwest 226 260 16,600  Level Boston Center
05:33PM 42.2236 -73.0681 231° Southwest 226 260 16,600  Level Boston Center
05:34PM 42.1878 -73.1267 230° Southwest 226 260 16,600  Level Boston Center
05:35PM 42.1436 -73.1933 228° Southwest 226 260 16,600  Level Boston Center
05:36PM 42.1100 -73.2517 232° Southwest 226 260 16,600  Level Boston Center
05:37PM 42.0656 -73.3183 228° Southwest 226 260 16,600  Level Boston Center
05:38PM 42.0256 -73.3847 231° Southwest 226 260 16,600  Level Boston Center
05:39PM 41.9853 -73.4456 228° Southwest 226 260 16,600  Level Boston Center
05:40PM 41.9431 -73.5119 229° Southwest 226 260 16,600  Level Boston Center
05:41PM 41.9050 -73.5725 230° Southwest 226 260 16,600  Level Boston Center
05:42PM 41.8647 -73.6361 230° Southwest 226 260 16,600  Level Boston Center
05:43PM 41.8244 -73.6964 228° Southwest 226 260 16,600  Level Boston Center
05:44PM 41.7906 -73.7542 232° Southwest 226 260 16,600  Level Boston Center
05:45PM 41.7439 -73.8203 227° Southwest 226 260 16,600  Level Boston Center
05:46PM 41.7097 -73.8750 230° Southwest 226 260 16,600  Level Boston Center
05:47PM 41.6650 -73.9433 229° Southwest 226 260 16,600  Level Boston Center
05:48PM 41.6289 -74.0008 230° Southwest 226 260 16,600  Level Boston Center
05:49PM 41.5864 -74.0664 229° Southwest 226 260 16,600  Level Boston Center
05:50PM 41.5458 -74.1292 229° Southwest 226 260 16,600 -300 Level Boston Center
05:51PM 41.5094 -74.1864 230° Southwest 232 267 16,100 -780 Descending Boston Center
05:52PM 41.4333 -74.2833 224° Southwest 217 250 14,700 -900 Descending New York TRACON
05:53PM 41.4000 -74.3500 236° Southwest 219 252 13,800 -900 Descending New York TRACON
05:54PM 41.3500 -74.4000 217° Southwest 215 247 12,900 -960 Descending New York TRACON
05:55PM 41.3167 -74.4667 236° Southwest 211 243 11,900 -960 Descending New York TRACON
05:56PM 41.2833 -74.5167 228° Southwest 208 239 11,000 -960 Descending New York TRACON
05:57PM 41.2333 -74.5833 225° Southwest 214 246 10,000 -960 Descending New York TRACON
05:58PM 41.2000 -74.6333 228° Southwest 210 242 9,000 -1,140 Descending New York TRACON
05:59PM 41.1500 -74.7000 225° Southwest 203 234 7,800 -1,260 Descending New York TRACON
06:00PM 41.1167 -74.7500 229° Southwest 199 229 6,600 -1,260 Descending New York TRACON
06:01PM 41.0833 -74.8000 229° Southwest 205 236 5,400 -1,200 Descending New York TRACON
06:03PM 41.0395 -74.8771 217° Southwest  Level FlightAware Approximate
06:10PM 40.9667 -74.9833 229° Southwest  Level FlightAware Approximate
06:11PM 40.9711 -74.9975 229° Southwest  Level Estimated
06:12PM 40.9711 -74.9975 229° Southwest  Level Estimated
06:13PM 40.9711 -74.9975 229° Southwest  Level Estimated